sensor_id;sensor_type;location;lat;lon;timestamp;pressure;altitude;pressure_sealevel;temperature;humidity
62978;BME280;49073;42.352;23.808;2022-10-18T00:01:29;96252.47;;;3.17;70.76
62978;BME280;49073;42.352;23.808;2022-10-18T00:04:29;96257.19;;;3.25;71.05
62978;BME280;49073;42.352;23.808;2022-10-18T00:07:30;96244.81;;;3.15;71.09
62978;BME280;49073;42.352;23.808;2022-10-18T00:10:31;96251.13;;;3.14;71.78
62978;BME280;49073;42.352;23.808;2022-10-18T00:13:31;96245.66;;;3.00;72.16
62978;BME280;49073;42.352;23.808;2022-10-18T00:16:32;96249.03;;;3.06;71.79
62978;BME280;49073;42.352;23.808;2022-10-18T00:19:32;96241.69;;;2.87;72.28
62978;BME280;49073;42.352;23.808;2022-10-18T00:22:35;96242.50;;;2.98;72.66
62978;BME280;49073;42.352;23.808;2022-10-18T00:25:36;96235.38;;;2.99;72.65
62978;BME280;49073;42.352;23.808;2022-10-18T00:28:37;96233.22;;;3.16;71.94
62978;BME280;49073;42.352;23.808;2022-10-18T00:31:42;96236.13;;;3.20;71.95
62978;BME280;49073;42.352;23.808;2022-10-18T00:34:43;96235.31;;;3.35;71.39
62978;BME280;49073;42.352;23.808;2022-10-18T00:37:43;96227.41;;;3.19;71.14
62978;BME280;49073;42.352;23.808;2022-10-18T00:40:44;96225.84;;;3.18;71.82
62978;BME280;49073;42.352;23.808;2022-10-18T00:47:14;96223.53;;;3.01;72.59
62978;BME280;49073;42.352;23.808;2022-10-18T00:50:18;96214.03;;;3.11;72.75
62978;BME280;49073;42.352;23.808;2022-10-18T00:53:21;96211.63;;;3.09;71.91
62978;BME280;49073;42.352;23.808;2022-10-18T00:56:22;96215.59;;;3.17;72.31
62978;BME280;49073;42.352;23.808;2022-10-18T00:59:23;96201.59;;;3.22;70.91
62978;BME280;49073;42.352;23.808;2022-10-18T01:02:25;96203.19;;;3.17;71.21
62978;BME280;49073;42.352;23.808;2022-10-18T01:05:26;96204.81;;;2.98;71.54
62978;BME280;49073;42.352;23.808;2022-10-18T01:08:35;96197.19;;;3.01;71.77
62978;BME280;49073;42.352;23.808;2022-10-18T01:15:06;96188.50;;;2.85;72.29
62978;BME280;49073;42.352;23.808;2022-10-18T01:18:43;96189.81;;;2.98;71.85
62978;BME280;49073;42.352;23.808;2022-10-18T01:21:47;96182.44;;;3.00;71.79
62978;BME280;49073;42.352;23.808;2022-10-18T01:25:04;96177.16;;;3.05;70.89
62978;BME280;49073;42.352;23.808;2022-10-18T01:28:23;96171.13;;;2.95;71.48
62978;BME280;49073;42.352;23.808;2022-10-18T01:31:37;96170.06;;;2.90;70.96
62978;BME280;49073;42.352;23.808;2022-10-18T01:34:41;96173.25;;;2.87;71.60
62978;BME280;49073;42.352;23.808;2022-10-18T01:37:46;96178.78;;;2.81;72.17
62978;BME280;49073;42.352;23.808;2022-10-18T01:40:49;96169.84;;;2.71;72.10
62978;BME280;49073;42.352;23.808;2022-10-18T01:43:57;96174.03;;;2.78;72.81
62978;BME280;49073;42.352;23.808;2022-10-18T01:46:58;96171.13;;;2.95;71.34
62978;BME280;49073;42.352;23.808;2022-10-18T01:50:02;96165.06;;;2.89;71.29
62978;BME280;49073;42.352;23.808;2022-10-18T01:53:04;96171.41;;;2.72;71.42
62978;BME280;49073;42.352;23.808;2022-10-18T02:03:06;96173.00;;;2.73;74.04
62978;BME280;49073;42.352;23.808;2022-10-18T02:09:28;96171.41;;;2.67;72.59
62978;BME280;49073;42.352;23.808;2022-10-18T02:12:31;96174.31;;;2.60;72.34
62978;BME280;49073;42.352;23.808;2022-10-18T02:15:36;96177.75;;;2.51;72.67
62978;BME280;49073;42.352;23.808;2022-10-18T02:18:41;96184.59;;;2.41;72.95
62978;BME280;49073;42.352;23.808;2022-10-18T02:21:45;96185.63;;;2.56;72.34
62978;BME280;49073;42.352;23.808;2022-10-18T02:24:58;96180.91;;;2.47;72.57
62978;BME280;49073;42.352;23.808;2022-10-18T02:27:59;96178.28;;;2.53;71.72
62978;BME280;49073;42.352;23.808;2022-10-18T02:31:09;96175.91;;;2.51;72.62
62978;BME280;49073;42.352;23.808;2022-10-18T02:34:23;96178.78;;;2.65;71.57
62978;BME280;49073;42.352;23.808;2022-10-18T02:37:30;96173.00;;;2.58;71.36
62978;BME280;49073;42.352;23.808;2022-10-18T02:40:32;96173.25;;;2.51;72.04
62978;BME280;49073;42.352;23.808;2022-10-18T02:43:32;96171.97;;;2.49;71.35
62978;BME280;49073;42.352;23.808;2022-10-18T02:46:35;96168.53;;;2.38;72.02
62978;BME280;49073;42.352;23.808;2022-10-18T02:49:36;96173.00;;;2.27;72.89
62978;BME280;49073;42.352;23.808;2022-10-18T02:52:36;96171.16;;;2.32;72.89
62978;BME280;49073;42.352;23.808;2022-10-18T02:55:37;96171.16;;;2.43;72.16
62978;BME280;49073;42.352;23.808;2022-10-18T02:58:37;96171.94;;;2.33;71.92
62978;BME280;49073;42.352;23.808;2022-10-18T03:01:38;96174.84;;;2.26;72.60
62978;BME280;49073;42.352;23.808;2022-10-18T03:04:38;96185.09;;;2.12;72.50
62978;BME280;49073;42.352;23.808;2022-10-18T03:07:39;96166.94;;;2.16;73.41
62978;BME280;49073;42.352;23.808;2022-10-18T03:10:39;96166.94;;;2.26;72.67
62978;BME280;49073;42.352;23.808;2022-10-18T03:13:42;96169.84;;;2.20;73.32
62978;BME280;49073;42.352;23.808;2022-10-18T03:16:43;96171.94;;;2.33;72.78
62978;BME280;49073;42.352;23.808;2022-10-18T03:19:44;96166.69;;;2.43;72.70
62978;BME280;49073;42.352;23.808;2022-10-18T03:22:45;96163.03;;;2.44;71.73
62978;BME280;49073;42.352;23.808;2022-10-18T03:25:46;96169.06;;;2.35;71.93
62978;BME280;49073;42.352;23.808;2022-10-18T03:28:46;96154.56;;;2.22;72.59
62978;BME280;49073;42.352;23.808;2022-10-18T03:31:47;96168.53;;;2.38;72.77
62978;BME280;49073;42.352;23.808;2022-10-18T03:34:47;96172.75;;;2.39;71.62
62978;BME280;49073;42.352;23.808;2022-10-18T03:37:48;96172.47;;;2.20;72.33
62978;BME280;49073;42.352;23.808;2022-10-18T03:40:49;96161.94;;;2.09;72.52
62978;BME280;49073;42.352;23.808;2022-10-18T03:43:50;96164.56;;;2.14;72.22
62978;BME280;49073;42.352;23.808;2022-10-18T03:46:51;96171.69;;;2.14;72.06
62978;BME280;49073;42.352;23.808;2022-10-18T03:49:51;96164.56;;;2.04;73.02
62978;BME280;49073;42.352;23.808;2022-10-18T03:52:52;96159.31;;;2.20;72.55
62978;BME280;49073;42.352;23.808;2022-10-18T03:55:54;96165.09;;;2.11;71.93
62978;BME280;49073;42.352;23.808;2022-10-18T03:58:55;96162.97;;;2.03;72.35
62978;BME280;49073;42.352;23.808;2022-10-18T04:01:56;96167.69;;;1.91;72.43
62978;BME280;49073;42.352;23.808;2022-10-18T04:04:56;96164.00;;;1.86;73.03
62978;BME280;49073;42.352;23.808;2022-10-18T04:07:58;96166.38;;;1.98;73.64
62978;BME280;49073;42.352;23.808;2022-10-18T04:10:58;96161.13;;;1.98;73.26
62978;BME280;49073;42.352;23.808;2022-10-18T04:13:59;96158.78;;;2.12;72.94
62978;BME280;49073;42.352;23.808;2022-10-18T04:16:59;96157.50;;;2.20;72.89
62978;BME280;49073;42.352;23.808;2022-10-18T04:20:00;96156.44;;;2.16;72.45
62978;BME280;49073;42.352;23.808;2022-10-18T04:23:00;96153.25;;;2.03;72.82
62978;BME280;49073;42.352;23.808;2022-10-18T04:26:01;96142.47;;;2.10;72.34
62978;BME280;49073;42.352;23.808;2022-10-18T04:29:01;96144.84;;;2.07;71.98
62978;BME280;49073;42.352;23.808;2022-10-18T04:32:02;96144.84;;;2.07;71.99
62978;BME280;49073;42.352;23.808;2022-10-18T04:35:04;96149.06;;;2.08;71.98
62978;BME280;49073;42.352;23.808;2022-10-18T04:38:04;96152.19;;;2.04;72.00
62978;BME280;49073;42.352;23.808;2022-10-18T04:41:05;96147.75;;;2.15;72.08
62978;BME280;49073;42.352;23.808;2022-10-18T04:44:06;96149.59;;;2.10;72.22
62978;BME280;49073;42.352;23.808;2022-10-18T04:47:06;96159.59;;;2.08;72.55
62978;BME280;49073;42.352;23.808;2022-10-18T04:50:07;96158.00;;;2.07;72.71
62978;BME280;49073;42.352;23.808;2022-10-18T04:53:08;96157.22;;;2.11;72.45
62978;BME280;49073;42.352;23.808;2022-10-18T04:56:08;96160.38;;;2.24;71.74
62978;BME280;49073;42.352;23.808;2022-10-18T04:59:09;96158.25;;;2.31;71.54
62978;BME280;49073;42.352;23.808;2022-10-18T05:02:09;96160.13;;;2.30;71.59
62978;BME280;49073;42.352;23.808;2022-10-18T05:05:10;96151.94;;;2.27;71.92
62978;BME280;49073;42.352;23.808;2022-10-18T05:08:11;96165.66;;;2.39;72.08
62978;BME280;49073;42.352;23.808;2022-10-18T05:11:12;96156.72;;;2.40;71.91
62978;BME280;49073;42.352;23.808;2022-10-18T05:14:13;96157.75;;;2.39;72.35
62978;BME280;49073;42.352;23.808;2022-10-18T05:17:13;96161.16;;;2.45;72.75
62978;BME280;49073;42.352;23.808;2022-10-18T05:20:15;96151.69;;;2.44;73.09
62978;BME280;49073;42.352;23.808;2022-10-18T05:23:16;96160.09;;;2.51;73.57
62978;BME280;49073;42.352;23.808;2022-10-18T05:26:16;96163.81;;;2.66;74.11
62978;BME280;49073;42.352;23.808;2022-10-18T05:29:17;96162.44;;;2.79;74.50
62978;BME280;49073;42.352;23.808;2022-10-18T05:32:17;96164.00;;;3.00;75.31
62978;BME280;49073;42.352;23.808;2022-10-18T05:35:18;96163.16;;;3.15;76.17
62978;BME280;49073;42.352;23.808;2022-10-18T05:38:18;96165.78;;;3.26;76.45
62978;BME280;49073;42.352;23.808;2022-10-18T05:41:19;96164.91;;;3.41;76.53
62978;BME280;49073;42.352;23.808;2022-10-18T05:44:20;96170.66;;;3.53;76.17
62978;BME280;49073;42.352;23.808;2022-10-18T05:47:20;96169.31;;;3.61;75.68
62978;BME280;49073;42.352;23.808;2022-10-18T05:50:21;96170.34;;;3.65;75.64
62978;BME280;49073;42.352;23.808;2022-10-18T05:53:21;96170.03;;;3.82;75.79
62978;BME280;49073;42.352;23.808;2022-10-18T05:56:23;96168.16;;;3.88;75.87
62978;BME280;49073;42.352;23.808;2022-10-18T05:59:23;96165.72;;;3.97;76.14
62978;BME280;49073;42.352;23.808;2022-10-18T06:02:24;96164.03;;;4.16;75.86
62978;BME280;49073;42.352;23.808;2022-10-18T06:05:25;96172.97;;;4.20;76.64
62978;BME280;49073;42.352;23.808;2022-10-18T06:08:26;96172.63;;;4.27;76.70
62978;BME280;49073;42.352;23.808;2022-10-18T06:11:26;96177.22;;;4.51;76.70
62978;BME280;49073;42.352;23.808;2022-10-18T06:14:27;96177.69;;;4.58;76.20
62978;BME280;49073;42.352;23.808;2022-10-18T06:17:27;96176.22;;;4.76;76.01
62978;BME280;49073;42.352;23.808;2022-10-18T06:20:28;96174.00;;;4.89;75.10
62978;BME280;49073;42.352;23.808;2022-10-18T06:23:29;96175.47;;;5.00;74.63
62978;BME280;49073;42.352;23.808;2022-10-18T06:26:29;96182.22;;;5.12;74.81
62978;BME280;49073;42.352;23.808;2022-10-18T06:29:30;96173.34;;;5.27;74.20
62978;BME280;49073;42.352;23.808;2022-10-18T06:32:31;96175.44;;;5.30;73.99
62978;BME280;49073;42.352;23.808;2022-10-18T06:35:32;96178.81;;;5.35;74.77
62978;BME280;49073;42.352;23.808;2022-10-18T06:38:33;96177.00;;;5.55;74.52
62978;BME280;49073;42.352;23.808;2022-10-18T06:41:34;96178.38;;;5.72;74.05
62978;BME280;49073;42.352;23.808;2022-10-18T06:44:35;96173.25;;;5.80;74.20
62978;BME280;49073;42.352;23.808;2022-10-18T06:47:35;96177.91;;;5.89;74.11
62978;BME280;49073;42.352;23.808;2022-10-18T06:50:36;96176.06;;;6.08;74.08
62978;BME280;49073;42.352;23.808;2022-10-18T06:53:38;96172.28;;;6.15;73.45
62978;BME280;49073;42.352;23.808;2022-10-18T06:56:39;96162.47;;;6.34;73.53
62978;BME280;49073;42.352;23.808;2022-10-18T06:59:39;96160.88;;;6.52;72.02
62978;BME280;49073;42.352;23.808;2022-10-18T07:02:40;96153.25;;;6.65;71.51
62978;BME280;49073;42.352;23.808;2022-10-18T07:05:40;96161.41;;;6.82;71.34
62978;BME280;49073;42.352;23.808;2022-10-18T07:08:41;96153.28;;;6.93;70.05
62978;BME280;49073;42.352;23.808;2022-10-18T07:11:42;96148.72;;;7.12;70.31
62978;BME280;49073;42.352;23.808;2022-10-18T07:14:42;96146.66;;;7.37;69.23
62978;BME280;49073;42.352;23.808;2022-10-18T07:17:44;96142.69;;;7.49;69.12
62978;BME280;49073;42.352;23.808;2022-10-18T07:20:47;96136.50;;;7.67;67.43
62978;BME280;49073;42.352;23.808;2022-10-18T07:23:48;96136.41;;;7.72;67.14
62978;BME280;49073;42.352;23.808;2022-10-18T07:26:48;96128.75;;;7.94;67.12
62978;BME280;49073;42.352;23.808;2022-10-18T07:29:49;96134.09;;;8.17;66.12
62978;BME280;49073;42.352;23.808;2022-10-18T07:32:51;96120.91;;;8.25;65.49
62978;BME280;49073;42.352;23.808;2022-10-18T07:35:51;96118.72;;;8.50;64.75
62978;BME280;49073;42.352;23.808;2022-10-18T07:38:52;96113.66;;;8.63;64.87
62978;BME280;49073;42.352;23.808;2022-10-18T07:41:53;96115.63;;;8.80;63.31
62978;BME280;49073;42.352;23.808;2022-10-18T07:44:53;96112.13;;;9.02;63.50
62978;BME280;49073;42.352;23.808;2022-10-18T07:47:55;96115.00;;;9.23;63.75
62978;BME280;49073;42.352;23.808;2022-10-18T07:51:00;96101.78;;;9.50;63.74
62978;BME280;49073;42.352;23.808;2022-10-18T07:54:01;96109.00;;;9.58;62.88
62978;BME280;49073;42.352;23.808;2022-10-18T07:57:03;96106.50;;;9.70;64.03
62978;BME280;49073;42.352;23.808;2022-10-18T08:00:04;96108.69;;;9.77;64.76
62978;BME280;49073;42.352;23.808;2022-10-18T08:03:05;96101.03;;;9.84;64.88
62978;BME280;49073;42.352;23.808;2022-10-18T08:06:07;96094.94;;;9.93;65.40
62978;BME280;49073;42.352;23.808;2022-10-18T08:09:08;96093.69;;;10.08;64.91
62978;BME280;49073;42.352;23.808;2022-10-18T08:12:09;96081.44;;;10.24;63.97
62978;BME280;49073;42.352;23.808;2022-10-18T08:15:10;96084.56;;;10.26;63.80
62978;BME280;49073;42.352;23.808;2022-10-18T08:18:11;96079.97;;;10.62;63.27
62978;BME280;49073;42.352;23.808;2022-10-18T08:21:14;96074.28;;;10.72;62.92
62978;BME280;49073;42.352;23.808;2022-10-18T08:24:15;96085.06;;;10.85;61.85
62978;BME280;49073;42.352;23.808;2022-10-18T08:27:15;96067.56;;;11.05;62.06
62978;BME280;49073;42.352;23.808;2022-10-18T08:30:16;96071.56;;;11.20;60.56
62978;BME280;49073;42.352;23.808;2022-10-18T08:33:16;96069.75;;;11.12;59.74
62978;BME280;49073;42.352;23.808;2022-10-18T08:36:17;96072.47;;;11.33;60.08
62978;BME280;49073;42.352;23.808;2022-10-18T08:39:18;96064.03;;;11.52;58.91
62978;BME280;49073;42.352;23.808;2022-10-18T08:42:49;96062.25;;;11.77;57.96
62978;BME280;49073;42.352;23.808;2022-10-18T08:45:54;96055.22;;;12.15;57.18
62978;BME280;49073;42.352;23.808;2022-10-18T08:48:55;96058.72;;;12.07;55.89
62978;BME280;49073;42.352;23.808;2022-10-18T08:51:57;96046.34;;;12.24;55.87
62978;BME280;49073;42.352;23.808;2022-10-18T08:55:03;96049.81;;;12.36;54.89
62978;BME280;49073;42.352;23.808;2022-10-18T08:58:30;96042.75;;;12.53;54.25
62978;BME280;49073;42.352;23.808;2022-10-18T09:04:56;96048.78;;;12.75;53.56
62978;BME280;49073;42.352;23.808;2022-10-18T09:11:12;96040.97;;;12.94;52.30
62978;BME280;49073;42.352;23.808;2022-10-18T09:20:58;96027.09;;;13.67;50.83
62978;BME280;49073;42.352;23.808;2022-10-18T09:24:11;96024.75;;;13.94;50.17
62978;BME280;49073;42.352;23.808;2022-10-18T09:27:17;96022.81;;;14.07;49.54
62978;BME280;49073;42.352;23.808;2022-10-18T09:30:42;96019.19;;;14.60;49.22
62978;BME280;49073;42.352;23.808;2022-10-18T09:36:55;96010.34;;;14.59;47.81
62978;BME280;49073;42.352;23.808;2022-10-18T09:40:03;96008.25;;;14.68;47.33
62978;BME280;49073;42.352;23.808;2022-10-18T09:43:15;96010.72;;;14.74;47.37
62978;BME280;49073;42.352;23.808;2022-10-18T09:46:18;96000.41;;;14.92;47.63
62978;BME280;49073;42.352;23.808;2022-10-18T09:49:41;95999.53;;;15.04;47.13
62978;BME280;49073;42.352;23.808;2022-10-18T09:52:49;95992.72;;;15.26;47.64
62978;BME280;49073;42.352;23.808;2022-10-18T09:56:19;95991.06;;;15.21;46.92
62978;BME280;49073;42.352;23.808;2022-10-18T09:59:42;95982.50;;;15.71;46.06
62978;BME280;49073;42.352;23.808;2022-10-18T10:02:43;95967.59;;;15.74;46.44
62978;BME280;49073;42.352;23.808;2022-10-18T10:05:43;95973.56;;;15.86;44.94
62978;BME280;49073;42.352;23.808;2022-10-18T10:08:53;95967.72;;;15.81;44.25
62978;BME280;49073;42.352;23.808;2022-10-18T10:11:55;95962.50;;;15.88;44.81
62978;BME280;49073;42.352;23.808;2022-10-18T10:18:32;95947.91;;;16.32;42.19
62978;BME280;49073;42.352;23.808;2022-10-18T10:21:38;95942.28;;;16.18;42.64
62978;BME280;49073;42.352;23.808;2022-10-18T10:24:46;95941.91;;;16.42;42.75
62978;BME280;49073;42.352;23.808;2022-10-18T10:27:48;95936.56;;;16.69;41.48
62978;BME280;49073;42.352;23.808;2022-10-18T10:30:49;95929.94;;;16.90;41.14
62978;BME280;49073;42.352;23.808;2022-10-18T10:34:12;95925.34;;;17.18;40.06
62978;BME280;49073;42.352;23.808;2022-10-18T10:37:35;95918.44;;;16.93;40.31
62978;BME280;49073;42.352;23.808;2022-10-18T10:40:48;95915.47;;;16.98;39.90
62978;BME280;49073;42.352;23.808;2022-10-18T10:43:49;95909.00;;;17.03;39.18
62978;BME280;49073;42.352;23.808;2022-10-18T10:46:51;95890.19;;;17.07;39.11
62978;BME280;49073;42.352;23.808;2022-10-18T10:49:55;95893.41;;;17.16;38.67
62978;BME280;49073;42.352;23.808;2022-10-18T10:52:56;95884.06;;;17.40;38.25
62978;BME280;49073;42.352;23.808;2022-10-18T10:55:57;95884.56;;;17.53;37.96
62978;BME280;49073;42.352;23.808;2022-10-18T11:02:20;95874.44;;;17.81;36.95
62978;BME280;49073;42.352;23.808;2022-10-18T11:05:26;95869.03;;;17.77;38.20
62978;BME280;49073;42.352;23.808;2022-10-18T11:08:35;95865.44;;;17.66;37.60
62978;BME280;49073;42.352;23.808;2022-10-18T11:11:40;95857.13;;;17.82;37.92
62978;BME280;49073;42.352;23.808;2022-10-18T11:14:51;95853.22;;;17.38;37.97
62978;BME280;49073;42.352;23.808;2022-10-18T11:21:22;95834.53;;;17.18;38.20
62978;BME280;49073;42.352;23.808;2022-10-18T11:24:25;95837.13;;;17.45;37.54
62978;BME280;49073;42.352;23.808;2022-10-18T11:27:35;95836.84;;;17.54;38.33
62978;BME280;49073;42.352;23.808;2022-10-18T11:30:51;95831.19;;;17.66;37.52
62978;BME280;49073;42.352;23.808;2022-10-18T11:34:02;95815.34;;;18.02;37.37
62978;BME280;49073;42.352;23.808;2022-10-18T11:37:20;95815.25;;;17.95;36.58
62978;BME280;49073;42.352;23.808;2022-10-18T11:40:38;95819.50;;;17.96;36.91
62978;BME280;49073;42.352;23.808;2022-10-18T11:43:51;95812.03;;;17.79;36.96
62978;BME280;49073;42.352;23.808;2022-10-18T11:47:30;95803.19;;;17.82;36.87
62978;BME280;49073;42.352;23.808;2022-10-18T12:00:48;95772.22;;;18.06;36.14
62978;BME280;49073;42.352;23.808;2022-10-18T12:03:52;95767.88;;;17.98;36.10
62978;BME280;49073;42.352;23.808;2022-10-18T12:06:57;95767.41;;;17.85;35.65
62978;BME280;49073;42.352;23.808;2022-10-18T12:09:59;95752.03;;;17.89;36.07
62978;BME280;49073;42.352;23.808;2022-10-18T12:13:06;95753.69;;;18.01;34.82
62978;BME280;49073;42.352;23.808;2022-10-18T12:16:08;95751.66;;;17.91;35.38
62978;BME280;49073;42.352;23.808;2022-10-18T12:19:19;95745.88;;;17.88;35.58
62978;BME280;49073;42.352;23.808;2022-10-18T12:22:27;95746.97;;;17.84;35.52
62978;BME280;49073;42.352;23.808;2022-10-18T12:25:35;95736.03;;;18.11;35.61
62978;BME280;49073;42.352;23.808;2022-10-18T12:31:57;95729.38;;;17.97;35.24
62978;BME280;49073;42.352;23.808;2022-10-18T12:35:06;95733.13;;;17.85;34.40
62978;BME280;49073;42.352;23.808;2022-10-18T12:38:20;95725.63;;;18.16;35.34
62978;BME280;49073;42.352;23.808;2022-10-18T12:41:27;95728.34;;;18.16;34.25
62978;BME280;49073;42.352;23.808;2022-10-18T12:44:32;95716.66;;;17.98;34.86
62978;BME280;49073;42.352;23.808;2022-10-18T12:47:33;95720.00;;;17.84;34.97
62978;BME280;49073;42.352;23.808;2022-10-18T12:50:38;95707.31;;;17.88;34.61
62978;BME280;49073;42.352;23.808;2022-10-18T12:53:41;95710.81;;;17.92;34.38
62978;BME280;49073;42.352;23.808;2022-10-18T12:56:44;95704.63;;;17.88;33.82
62978;BME280;49073;42.352;23.808;2022-10-18T12:59:46;95704.00;;;17.53;34.06
62978;BME280;49073;42.352;23.808;2022-10-18T13:06:10;95697.59;;;17.72;34.67
62978;BME280;49073;42.352;23.808;2022-10-18T13:09:20;95695.38;;;17.89;34.32
62978;BME280;49073;42.352;23.808;2022-10-18T13:15:41;95689.31;;;17.43;34.17
62978;BME280;49073;42.352;23.808;2022-10-18T13:18:54;95688.56;;;17.50;33.90
62978;BME280;49073;42.352;23.808;2022-10-18T13:28:41;95692.34;;;17.38;34.79
62978;BME280;49073;42.352;23.808;2022-10-18T13:31:59;95684.22;;;17.35;34.53
62978;BME280;49073;42.352;23.808;2022-10-18T13:35:02;95678.44;;;17.36;34.26
62978;BME280;49073;42.352;23.808;2022-10-18T13:38:04;95676.50;;;17.33;34.00
62978;BME280;49073;42.352;23.808;2022-10-18T13:47:35;95667.63;;;17.29;33.90
62978;BME280;49073;42.352;23.808;2022-10-18T13:50:40;95664.47;;;17.20;33.65
62978;BME280;49073;42.352;23.808;2022-10-18T14:07:30;95652.16;;;16.81;33.42
62978;BME280;49073;42.352;23.808;2022-10-18T14:10:39;95661.72;;;16.78;32.89
62978;BME280;49073;42.352;23.808;2022-10-18T14:13:46;95652.34;;;16.61;32.60
62978;BME280;49073;42.352;23.808;2022-10-18T14:16:59;95646.09;;;16.53;33.44
62978;BME280;49073;42.352;23.808;2022-10-18T14:20:12;95639.09;;;16.45;33.39
62978;BME280;49073;42.352;23.808;2022-10-18T14:23:22;95644.00;;;16.36;31.68
62978;BME280;49073;42.352;23.808;2022-10-18T14:26:25;95638.88;;;16.27;32.28
62978;BME280;49073;42.352;23.808;2022-10-18T14:29:28;95635.31;;;16.19;33.34
62978;BME280;49073;42.352;23.808;2022-10-18T14:32:30;95624.41;;;16.05;32.54
62978;BME280;49073;42.352;23.808;2022-10-18T14:35:32;95621.53;;;15.90;31.75
62978;BME280;49073;42.352;23.808;2022-10-18T14:38:37;95623.81;;;15.88;32.14
62978;BME280;49073;42.352;23.808;2022-10-18T14:41:51;95622.09;;;15.76;32.90
62978;BME280;49073;42.352;23.808;2022-10-18T14:44:52;95623.19;;;15.71;31.90
62978;BME280;49073;42.352;23.808;2022-10-18T14:47:52;95620.34;;;15.61;31.70
62978;BME280;49073;42.352;23.808;2022-10-18T14:50:56;95617.16;;;15.51;31.17
62978;BME280;49073;42.352;23.808;2022-10-18T14:53:59;95618.94;;;15.44;31.59
62978;BME280;49073;42.352;23.808;2022-10-18T14:57:01;95627.00;;;15.44;31.33
62978;BME280;49073;42.352;23.808;2022-10-18T15:00:07;95613.88;;;15.38;31.49
62978;BME280;49073;42.352;23.808;2022-10-18T15:03:12;95615.84;;;15.41;32.77
62978;BME280;49073;42.352;23.808;2022-10-18T15:06:17;95618.34;;;15.31;33.98
62978;BME280;49073;42.352;23.808;2022-10-18T15:09:20;95612.78;;;15.16;34.13
62978;BME280;49073;42.352;23.808;2022-10-18T15:12:22;95614.22;;;15.10;33.29
62978;BME280;49073;42.352;23.808;2022-10-18T15:15:28;95610.63;;;15.02;33.66
62978;BME280;49073;42.352;23.808;2022-10-18T15:18:30;95605.56;;;14.97;35.52
62978;BME280;49073;42.352;23.808;2022-10-18T15:21:31;95610.94;;;14.74;35.89
62978;BME280;49073;42.352;23.808;2022-10-18T15:24:37;95606.66;;;14.49;36.66
62978;BME280;49073;42.352;23.808;2022-10-18T15:27:39;95606.66;;;14.10;37.55
62978;BME280;49073;42.352;23.808;2022-10-18T15:30:40;95606.06;;;13.81;40.43
62978;BME280;49073;42.352;23.808;2022-10-18T15:33:42;95602.97;;;13.43;40.71
62978;BME280;49073;42.352;23.808;2022-10-18T15:36:43;95596.69;;;13.03;40.17
62978;BME280;49073;42.352;23.808;2022-10-18T15:39:44;95594.00;;;12.71;40.85
62978;BME280;49073;42.352;23.808;2022-10-18T15:42:45;95603.19;;;12.42;41.73
62978;BME280;49073;42.352;23.808;2022-10-18T15:45:45;95604.09;;;12.17;41.58
62978;BME280;49073;42.352;23.808;2022-10-18T15:48:47;95609.22;;;11.98;42.27
62978;BME280;49073;42.352;23.808;2022-10-18T15:51:49;95608.16;;;11.86;42.45
62978;BME280;49073;42.352;23.808;2022-10-18T15:54:50;95608.50;;;11.72;43.58
62978;BME280;49073;42.352;23.808;2022-10-18T15:57:51;95606.75;;;11.52;44.58
62978;BME280;49073;42.352;23.808;2022-10-18T16:00:55;95602.00;;;11.32;45.10
62978;BME280;49073;42.352;23.808;2022-10-18T16:03:57;95604.22;;;11.05;46.22
62978;BME280;49073;42.352;23.808;2022-10-18T16:06:58;95610.09;;;10.86;46.52
62978;BME280;49073;42.352;23.808;2022-10-18T16:09:59;95610.84;;;10.74;47.10
62978;BME280;49073;42.352;23.808;2022-10-18T16:12:59;95611.19;;;10.60;48.06
62978;BME280;49073;42.352;23.808;2022-10-18T16:16:00;95614.22;;;10.50;48.27
62978;BME280;49073;42.352;23.808;2022-10-18T16:19:01;95609.50;;;10.34;48.65
62978;BME280;49073;42.352;23.808;2022-10-18T16:22:02;95612.56;;;10.24;48.82
62978;BME280;49073;42.352;23.808;2022-10-18T16:25:03;95595.66;;;10.08;48.81
62978;BME280;49073;42.352;23.808;2022-10-18T16:28:14;95608.13;;;9.95;48.82
62978;BME280;49073;42.352;23.808;2022-10-18T16:31:20;95609.88;;;9.90;48.86
62978;BME280;49073;42.352;23.808;2022-10-18T16:34:22;95616.16;;;9.65;49.68
62978;BME280;49073;42.352;23.808;2022-10-18T16:37:22;95609.41;;;9.67;49.39
62978;BME280;49073;42.352;23.808;2022-10-18T16:40:24;95609.25;;;9.42;50.21
62978;BME280;49073;42.352;23.808;2022-10-18T16:43:25;95613.78;;;9.12;52.05
62978;BME280;49073;42.352;23.808;2022-10-18T16:46:30;95618.06;;;9.04;51.76
62978;BME280;49073;42.352;23.808;2022-10-18T16:49:31;95620.09;;;8.98;51.94
62978;BME280;49073;42.352;23.808;2022-10-18T16:52:31;95617.50;;;8.81;52.27
62978;BME280;49073;42.352;23.808;2022-10-18T16:55:32;95608.81;;;8.63;52.94
62978;BME280;49073;42.352;23.808;2022-10-18T16:58:33;95613.81;;;8.55;53.03
62978;BME280;49073;42.352;23.808;2022-10-18T17:01:33;95620.53;;;8.53;53.13
62978;BME280;49073;42.352;23.808;2022-10-18T17:04:35;95619.59;;;8.49;52.32
62978;BME280;49073;42.352;23.808;2022-10-18T17:07:35;95622.88;;;8.54;52.48
62978;BME280;49073;42.352;23.808;2022-10-18T17:10:36;95618.69;;;8.36;52.69
62978;BME280;49073;42.352;23.808;2022-10-18T17:13:36;95619.94;;;8.12;54.10
62978;BME280;49073;42.352;23.808;2022-10-18T17:16:37;95615.72;;;8.11;53.71
62978;BME280;49073;42.352;23.808;2022-10-18T17:19:38;95620.09;;;8.07;54.42
62978;BME280;49073;42.352;23.808;2022-10-18T17:22:38;95626.03;;;8.04;54.33
62978;BME280;49073;42.352;23.808;2022-10-18T17:25:40;95625.88;;;7.82;54.40
62978;BME280;49073;42.352;23.808;2022-10-18T17:28:48;95629.00;;;7.67;54.29
62978;BME280;49073;42.352;23.808;2022-10-18T17:31:49;95619.44;;;7.48;56.18
62978;BME280;49073;42.352;23.808;2022-10-18T17:34:50;95630.31;;;7.29;56.92
62978;BME280;49073;42.352;23.808;2022-10-18T17:37:50;95631.22;;;7.24;57.27